sensor_id;sensor_type;location;lat;lon;timestamp;temperature;humidity
26641;DHT22;14269;47.358;0.724;2023-09-18T00:01:02;19.0;84.0
26641;DHT22;14269;47.358;0.724;2023-09-18T00:03:33;19.0;84.0
26641;DHT22;14269;47.358;0.724;2023-09-18T00:06:05;19.0;84.0
26641;DHT22;14269;47.358;0.724;2023-09-18T00:08:39;19.0;85.0
26641;DHT22;14269;47.358;0.724;2023-09-18T00:11:18;19.0;85.0
26641;DHT22;14269;47.358;0.724;2023-09-18T00:13:50;19.0;85.0
26641;DHT22;14269;47.358;0.724;2023-09-18T00:16:22;19.0;85.0
26641;DHT22;14269;47.358;0.724;2023-09-18T00:18:53;19.0;85.0
26641;DHT22;14269;47.358;0.724;2023-09-18T00:21:25;19.0;85.0
26641;DHT22;14269;47.358;0.724;2023-09-18T00:23:57;19.0;85.0
26641;DHT22;14269;47.358;0.724;2023-09-18T00:26:28;19.0;85.0
26641;DHT22;14269;47.358;0.724;2023-09-18T00:29:00;19.0;85.0
26641;DHT22;14269;47.358;0.724;2023-09-18T00:31:31;19.0;84.0
26641;DHT22;14269;47.358;0.724;2023-09-18T00:34:03;19.0;85.0
26641;DHT22;14269;47.358;0.724;2023-09-18T00:36:35;19.0;85.0
26641;DHT22;14269;47.358;0.724;2023-09-18T00:39:06;19.0;85.0
26641;DHT22;14269;47.358;0.724;2023-09-18T00:41:53;19.0;85.0
26641;DHT22;14269;47.358;0.724;2023-09-18T00:44:30;19.0;85.0
26641;DHT22;14269;47.358;0.724;2023-09-18T00:47:02;19.0;85.0
26641;DHT22;14269;47.358;0.724;2023-09-18T00:49:34;18.0;86.0
26641;DHT22;14269;47.358;0.724;2023-09-18T00:52:15;18.0;86.0
26641;DHT22;14269;47.358;0.724;2023-09-18T00:54:57;18.0;86.0
26641;DHT22;14269;47.358;0.724;2023-09-18T00:57:29;18.0;86.0
26641;DHT22;14269;47.358;0.724;2023-09-18T01:00:01;18.0;87.0
26641;DHT22;14269;47.358;0.724;2023-09-18T01:02:32;18.0;87.0
26641;DHT22;14269;47.358;0.724;2023-09-18T01:05:03;18.0;87.0
26641;DHT22;14269;47.358;0.724;2023-09-18T01:07:36;18.0;87.0
26641;DHT22;14269;47.358;0.724;2023-09-18T01:10:17;18.0;86.0
26641;DHT22;14269;47.358;0.724;2023-09-18T01:13:00;18.0;87.0
26641;DHT22;14269;47.358;0.724;2023-09-18T01:15:44;18.0;87.0
26641;DHT22;14269;47.358;0.724;2023-09-18T01:18:22;18.0;87.0
26641;DHT22;14269;47.358;0.724;2023-09-18T01:20:54;18.0;87.0
26641;DHT22;14269;47.358;0.724;2023-09-18T01:23:25;18.0;87.0
26641;DHT22;14269;47.358;0.724;2023-09-18T01:25:57;18.0;87.0
26641;DHT22;14269;47.358;0.724;2023-09-18T01:28:28;18.0;87.0
26641;DHT22;14269;47.358;0.724;2023-09-18T01:31:00;18.0;87.0
26641;DHT22;14269;47.358;0.724;2023-09-18T01:33:32;18.0;87.0
26641;DHT22;14269;47.358;0.724;2023-09-18T01:36:14;18.0;87.0
26641;DHT22;14269;47.358;0.724;2023-09-18T01:38:55;18.0;86.0
26641;DHT22;14269;47.358;0.724;2023-09-18T01:41:27;18.0;87.0
26641;DHT22;14269;47.358;0.724;2023-09-18T01:43:59;19.0;87.0
26641;DHT22;14269;47.358;0.724;2023-09-18T01:46:32;19.0;86.0
26641;DHT22;14269;47.358;0.724;2023-09-18T01:49:12;19.0;86.0
26641;DHT22;14269;47.358;0.724;2023-09-18T01:51:44;19.0;85.0
26641;DHT22;14269;47.358;0.724;2023-09-18T01:54:15;19.0;85.0
26641;DHT22;14269;47.358;0.724;2023-09-18T01:56:47;19.0;85.0
26641;DHT22;14269;47.358;0.724;2023-09-18T01:59:19;19.0;84.0
26641;DHT22;14269;47.358;0.724;2023-09-18T02:01:51;19.0;84.0
26641;DHT22;14269;47.358;0.724;2023-09-18T02:04:23;19.0;84.0
26641;DHT22;14269;47.358;0.724;2023-09-18T02:07:05;19.0;84.0
26641;DHT22;14269;47.358;0.724;2023-09-18T02:09:45;19.0;84.0
26641;DHT22;14269;47.358;0.724;2023-09-18T02:12:17;19.0;84.0
26641;DHT22;14269;47.358;0.724;2023-09-18T02:15:05;19.0;85.0
26641;DHT22;14269;47.358;0.724;2023-09-18T02:17:40;19.0;85.0
26641;DHT22;14269;47.358;0.724;2023-09-18T02:20:12;19.0;85.0
26641;DHT22;14269;47.358;0.724;2023-09-18T02:22:47;18.0;86.0
26641;DHT22;14269;47.358;0.724;2023-09-18T02:25:26;18.0;86.0
26641;DHT22;14269;47.358;0.724;2023-09-18T02:27:57;18.0;86.0
26641;DHT22;14269;47.358;0.724;2023-09-18T02:30:29;18.0;86.0
26641;DHT22;14269;47.358;0.724;2023-09-18T02:33:03;18.0;87.0
26641;DHT22;14269;47.358;0.724;2023-09-18T02:35:43;18.0;87.0
26641;DHT22;14269;47.358;0.724;2023-09-18T02:38:14;18.0;87.0
26641;DHT22;14269;47.358;0.724;2023-09-18T02:40:46;18.0;87.0
26641;DHT22;14269;47.358;0.724;2023-09-18T02:43:17;18.0;87.0
26641;DHT22;14269;47.358;0.724;2023-09-18T02:45:49;18.0;87.0
26641;DHT22;14269;47.358;0.724;2023-09-18T02:48:21;18.0;87.0
26641;DHT22;14269;47.358;0.724;2023-09-18T02:50:52;18.0;87.0
26641;DHT22;14269;47.358;0.724;2023-09-18T02:53:24;18.0;87.0
26641;DHT22;14269;47.358;0.724;2023-09-18T02:55:57;18.0;87.0
26641;DHT22;14269;47.358;0.724;2023-09-18T02:58:37;18.0;87.0
26641;DHT22;14269;47.358;0.724;2023-09-18T03:01:09;18.0;87.0
26641;DHT22;14269;47.358;0.724;2023-09-18T03:03:41;18.0;87.0
26641;DHT22;14269;47.358;0.724;2023-09-18T03:06:13;18.0;87.0
26641;DHT22;14269;47.358;0.724;2023-09-18T03:08:44;18.0;86.0
26641;DHT22;14269;47.358;0.724;2023-09-18T03:11:16;18.0;86.0
26641;DHT22;14269;47.358;0.724;2023-09-18T03:13:47;18.0;87.0
26641;DHT22;14269;47.358;0.724;2023-09-18T03:16:19;18.0;87.0
26641;DHT22;14269;47.358;0.724;2023-09-18T03:18:50;18.0;87.0
26641;DHT22;14269;47.358;0.724;2023-09-18T03:21:22;18.0;87.0
26641;DHT22;14269;47.358;0.724;2023-09-18T03:23:54;18.0;87.0
26641;DHT22;14269;47.358;0.724;2023-09-18T03:26:25;18.0;87.0
26641;DHT22;14269;47.358;0.724;2023-09-18T03:28:57;18.0;87.0
26641;DHT22;14269;47.358;0.724;2023-09-18T03:31:29;18.0;87.0
26641;DHT22;14269;47.358;0.724;2023-09-18T03:34:00;18.0;86.0
26641;DHT22;14269;47.358;0.724;2023-09-18T03:36:32;18.0;86.0
26641;DHT22;14269;47.358;0.724;2023-09-18T03:39:05;18.0;87.0
26641;DHT22;14269;47.358;0.724;2023-09-18T03:41:45;18.0;87.0
26641;DHT22;14269;47.358;0.724;2023-09-18T03:44:17;18.0;87.0
26641;DHT22;14269;47.358;0.724;2023-09-18T03:46:49;18.0;87.0
26641;DHT22;14269;47.358;0.724;2023-09-18T03:49:20;18.0;87.0
26641;DHT22;14269;47.358;0.724;2023-09-18T03:51:52;18.0;87.0
26641;DHT22;14269;47.358;0.724;2023-09-18T03:54:24;18.0;87.0
26641;DHT22;14269;47.358;0.724;2023-09-18T03:56:55;18.0;87.0
26641;DHT22;14269;47.358;0.724;2023-09-18T03:59:27;18.0;87.0
26641;DHT22;14269;47.358;0.724;2023-09-18T04:01:59;18.0;87.0
26641;DHT22;14269;47.358;0.724;2023-09-18T04:04:30;18.0;87.0
26641;DHT22;14269;47.358;0.724;2023-09-18T04:07:05;18.0;87.0
26641;DHT22;14269;47.358;0.724;2023-09-18T04:09:44;18.0;87.0
26641;DHT22;14269;47.358;0.724;2023-09-18T04:12:15;18.0;87.0
26641;DHT22;14269;47.358;0.724;2023-09-18T04:14:47;18.0;87.0
26641;DHT22;14269;47.358;0.724;2023-09-18T04:17:18;18.0;87.0
26641;DHT22;14269;47.358;0.724;2023-09-18T04:20:00;18.0;87.0
26641;DHT22;14269;47.358;0.724;2023-09-18T04:22:43;18.0;87.0
26641;DHT22;14269;47.358;0.724;2023-09-18T04:25:26;18.0;87.0
26641;DHT22;14269;47.358;0.724;2023-09-18T04:28:06;18.0;87.0
26641;DHT22;14269;47.358;0.724;2023-09-18T04:30:37;18.0;87.0
26641;DHT22;14269;47.358;0.724;2023-09-18T04:33:09;18.0;87.0
26641;DHT22;14269;47.358;0.724;2023-09-18T04:35:40;18.0;87.0
26641;DHT22;14269;47.358;0.724;2023-09-18T04:38:15;18.0;87.0
26641;DHT22;14269;47.358;0.724;2023-09-18T04:40:58;18.0;87.0
26641;DHT22;14269;47.358;0.724;2023-09-18T04:43:36;18.0;87.0
26641;DHT22;14269;47.358;0.724;2023-09-18T04:46:07;18.0;87.0
26641;DHT22;14269;47.358;0.724;2023-09-18T04:48:39;18.0;87.0
26641;DHT22;14269;47.358;0.724;2023-09-18T04:51:12;18.0;87.0
26641;DHT22;14269;47.358;0.724;2023-09-18T04:53:52;18.0;86.0
26641;DHT22;14269;47.358;0.724;2023-09-18T04:56:34;18.0;86.0
26641;DHT22;14269;47.358;0.724;2023-09-18T04:59:06;18.0;86.0
26641;DHT22;14269;47.358;0.724;2023-09-18T05:01:37;18.0;86.0
26641;DHT22;14269;47.358;0.724;2023-09-18T05:04:09;18.0;86.0
26641;DHT22;14269;47.358;0.724;2023-09-18T05:06:42;18.0;85.0
26641;DHT22;14269;47.358;0.724;2023-09-18T05:09:22;18.0;85.0
26641;DHT22;14269;47.358;0.724;2023-09-18T05:11:54;18.0;85.0
26641;DHT22;14269;47.358;0.724;2023-09-18T05:14:26;18.0;85.0
26641;DHT22;14269;47.358;0.724;2023-09-18T05:16:57;18.0;85.0
26641;DHT22;14269;47.358;0.724;2023-09-18T05:19:29;18.0;86.0
26641;DHT22;14269;47.358;0.724;2023-09-18T05:22:01;18.0;86.0
26641;DHT22;14269;47.358;0.724;2023-09-18T05:24:32;18.0;85.0
26641;DHT22;14269;47.358;0.724;2023-09-18T05:27:06;18.0;85.0
26641;DHT22;14269;47.358;0.724;2023-09-18T05:29:46;18.0;86.0
26641;DHT22;14269;47.358;0.724;2023-09-18T05:32:17;18.0;85.0
26641;DHT22;14269;47.358;0.724;2023-09-18T05:34:49;18.0;85.0
26641;DHT22;14269;47.358;0.724;2023-09-18T05:37:21;18.0;86.0
26641;DHT22;14269;47.358;0.724;2023-09-18T05:39:52;18.0;86.0
26641;DHT22;14269;47.358;0.724;2023-09-18T05:42:24;18.0;86.0
26641;DHT22;14269;47.358;0.724;2023-09-18T05:44:56;18.0;86.0
26641;DHT22;14269;47.358;0.724;2023-09-18T05:47:29;18.0;86.0
26641;DHT22;14269;47.358;0.724;2023-09-18T05:50:14;18.0;86.0
26641;DHT22;14269;47.358;0.724;2023-09-18T05:52:51;18.0;86.0
26641;DHT22;14269;47.358;0.724;2023-09-18T05:55:24;18.0;86.0
26641;DHT22;14269;47.358;0.724;2023-09-18T05:58:06;18.0;85.0
26641;DHT22;14269;47.358;0.724;2023-09-18T06:00:46;18.0;86.0
26641;DHT22;14269;47.358;0.724;2023-09-18T06:03:19;19.0;85.0
26641;DHT22;14269;47.358;0.724;2023-09-18T06:05:59;19.0;85.0
26641;DHT22;14269;47.358;0.724;2023-09-18T06:08:38;19.0;84.0
26641;DHT22;14269;47.358;0.724;2023-09-18T06:11:10;19.0;84.0
26641;DHT22;14269;47.358;0.724;2023-09-18T06:13:41;19.0;84.0
26641;DHT22;14269;47.358;0.724;2023-09-18T06:16:13;19.0;85.0
26641;DHT22;14269;47.358;0.724;2023-09-18T06:18:45;19.0;85.0
26641;DHT22;14269;47.358;0.724;2023-09-18T06:21:16;19.0;85.0
26641;DHT22;14269;47.358;0.724;2023-09-18T06:23:48;19.0;85.0
26641;DHT22;14269;47.358;0.724;2023-09-18T06:26:21;19.0;85.0
26641;DHT22;14269;47.358;0.724;2023-09-18T06:29:02;19.0;84.0
26641;DHT22;14269;47.358;0.724;2023-09-18T06:31:33;19.0;85.0
26641;DHT22;14269;47.358;0.724;2023-09-18T06:34:05;19.0;85.0
26641;DHT22;14269;47.358;0.724;2023-09-18T06:36:37;19.0;85.0
26641;DHT22;14269;47.358;0.724;2023-09-18T06:39:08;19.0;85.0
26641;DHT22;14269;47.358;0.724;2023-09-18T06:41:40;19.0;85.0
26641;DHT22;14269;47.358;0.724;2023-09-18T06:44:11;19.0;84.0
26641;DHT22;14269;47.358;0.724;2023-09-18T06:46:43;19.0;84.0
26641;DHT22;14269;47.358;0.724;2023-09-18T06:49:15;19.0;84.0
26641;DHT22;14269;47.358;0.724;2023-09-18T06:51:46;20.0;83.0
26641;DHT22;14269;47.358;0.724;2023-09-18T06:54:18;20.0;81.0
26641;DHT22;14269;47.358;0.724;2023-09-18T06:56:50;19.0;82.0
26641;DHT22;14269;47.358;0.724;2023-09-18T06:59:21;20.0;82.0
26641;DHT22;14269;47.358;0.724;2023-09-18T07:01:53;19.0;82.0
26641;DHT22;14269;47.358;0.724;2023-09-18T07:04:24;20.0;82.0
26641;DHT22;14269;47.358;0.724;2023-09-18T07:06:56;20.0;81.0
26641;DHT22;14269;47.358;0.724;2023-09-18T07:09:28;20.0;81.0
26641;DHT22;14269;47.358;0.724;2023-09-18T07:12:00;20.0;82.0
26641;DHT22;14269;47.358;0.724;2023-09-18T07:14:31;20.0;82.0
26641;DHT22;14269;47.358;0.724;2023-09-18T07:17:03;20.0;82.0
26641;DHT22;14269;47.358;0.724;2023-09-18T07:19:34;20.0;81.0
26641;DHT22;14269;47.358;0.724;2023-09-18T07:22:06;20.0;82.0
26641;DHT22;14269;47.358;0.724;2023-09-18T07:24:40;20.0;82.0
26641;DHT22;14269;47.358;0.724;2023-09-18T07:27:19;20.0;82.0
26641;DHT22;14269;47.358;0.724;2023-09-18T07:29:54;20.0;82.0
26641;DHT22;14269;47.358;0.724;2023-09-18T07:32:33;20.0;83.0
26641;DHT22;14269;47.358;0.724;2023-09-18T07:35:06;20.0;83.0
26641;DHT22;14269;47.358;0.724;2023-09-18T07:37:46;20.0;83.0
26641;DHT22;14269;47.358;0.724;2023-09-18T07:40:18;20.0;83.0
26641;DHT22;14269;47.358;0.724;2023-09-18T07:42:49;20.0;83.0
26641;DHT22;14269;47.358;0.724;2023-09-18T07:45:22;20.0;83.0
26641;DHT22;14269;47.358;0.724;2023-09-18T07:48:04;20.0;83.0
26641;DHT22;14269;47.358;0.724;2023-09-18T07:50:45;20.0;82.0
26641;DHT22;14269;47.358;0.724;2023-09-18T07:53:17;20.0;82.0
26641;DHT22;14269;47.358;0.724;2023-09-18T07:55:55;20.0;81.0
26641;DHT22;14269;47.358;0.724;2023-09-18T07:58:30;20.0;81.0
26641;DHT22;14269;47.358;0.724;2023-09-18T08:01:05;20.0;82.0
26641;DHT22;14269;47.358;0.724;2023-09-18T08:03:43;20.0;82.0
26641;DHT22;14269;47.358;0.724;2023-09-18T08:06:18;20.0;82.0
26641;DHT22;14269;47.358;0.724;2023-09-18T08:08:57;20.0;83.0
26641;DHT22;14269;47.358;0.724;2023-09-18T08:11:28;20.0;83.0
26641;DHT22;14269;47.358;0.724;2023-09-18T08:14:00;20.0;83.0
26641;DHT22;14269;47.358;0.724;2023-09-18T08:16:32;20.0;83.0
26641;DHT22;14269;47.358;0.724;2023-09-18T08:19:04;20.0;84.0
26641;DHT22;14269;47.358;0.724;2023-09-18T08:21:35;20.0;84.0
26641;DHT22;14269;47.358;0.724;2023-09-18T08:24:06;20.0;84.0
26641;DHT22;14269;47.358;0.724;2023-09-18T08:26:38;20.0;83.0
26641;DHT22;14269;47.358;0.724;2023-09-18T08:29:10;20.0;83.0
26641;DHT22;14269;47.358;0.724;2023-09-18T08:31:41;20.0;83.0
26641;DHT22;14269;47.358;0.724;2023-09-18T08:34:13;20.0;83.0
26641;DHT22;14269;47.358;0.724;2023-09-18T08:36:45;20.0;83.0
26641;DHT22;14269;47.358;0.724;2023-09-18T08:39:16;20.0;83.0
26641;DHT22;14269;47.358;0.724;2023-09-18T08:41:51;20.0;83.0
26641;DHT22;14269;47.358;0.724;2023-09-18T08:44:30;20.0;82.0
26641;DHT22;14269;47.358;0.724;2023-09-18T08:47:02;20.0;83.0
26641;DHT22;14269;47.358;0.724;2023-09-18T08:49:34;20.0;83.0
26641;DHT22;14269;47.358;0.724;2023-09-18T08:52:06;20.0;83.0
26641;DHT22;14269;47.358;0.724;2023-09-18T08:54:47;20.0;83.0
26641;DHT22;14269;47.358;0.724;2023-09-18T08:57:19;20.0;83.0
26641;DHT22;14269;47.358;0.724;2023-09-18T08:59:50;20.0;82.0
26641;DHT22;14269;47.358;0.724;2023-09-18T09:02:32;20.0;82.0
26641;DHT22;14269;47.358;0.724;2023-09-18T09:05:04;20.0;83.0
26641;DHT22;14269;47.358;0.724;2023-09-18T09:07:35;20.0;83.0
26641;DHT22;14269;47.358;0.724;2023-09-18T09:10:07;21.0;83.0
26641;DHT22;14269;47.358;0.724;2023-09-18T09:12:51;21.0;82.0
26641;DHT22;14269;47.358;0.724;2023-09-18T09:15:34;21.0;82.0
26641;DHT22;14269;47.358;0.724;2023-09-18T09:18:12;21.0;82.0
26641;DHT22;14269;47.358;0.724;2023-09-18T09:20:54;21.0;81.0
26641;DHT22;14269;47.358;0.724;2023-09-18T09:23:45;21.0;80.0
26641;DHT22;14269;47.358;0.724;2023-09-18T09:26:28;21.0;80.0
26641;DHT22;14269;47.358;0.724;2023-09-18T09:29:14;21.0;80.0
26641;DHT22;14269;47.358;0.724;2023-09-18T09:31:51;21.0;79.0
26641;DHT22;14269;47.358;0.724;2023-09-18T09:34:26;21.0;79.0
26641;DHT22;14269;47.358;0.724;2023-09-18T09:37:04;21.0;78.0
26641;DHT22;14269;47.358;0.724;2023-09-18T09:39:48;21.0;76.0
26641;DHT22;14269;47.358;0.724;2023-09-18T09:42:38;21.0;76.0
26641;DHT22;14269;47.358;0.724;2023-09-18T09:45:13;22.0;74.0
26641;DHT22;14269;47.358;0.724;2023-09-18T09:47:54;23.0;73.0
26641;DHT22;14269;47.358;0.724;2023-09-18T09:50:33;22.0;71.0
26641;DHT22;14269;47.358;0.724;2023-09-18T09:53:04;22.0;71.0
26641;DHT22;14269;47.358;0.724;2023-09-18T09:55:38;23.0;69.0
26641;DHT22;14269;47.358;0.724;2023-09-18T09:58:26;23.0;69.0
26641;DHT22;14269;47.358;0.724;2023-09-18T10:01:18;22.0;70.0
26641;DHT22;14269;47.358;0.724;2023-09-18T10:03:51;23.0;69.0
26641;DHT22;14269;47.358;0.724;2023-09-18T10:06:23;23.0;67.0
26641;DHT22;14269;47.358;0.724;2023-09-18T10:09:07;23.0;70.0
26641;DHT22;14269;47.358;0.724;2023-09-18T10:11:51;23.0;67.0
26641;DHT22;14269;47.358;0.724;2023-09-18T10:14:32;23.0;65.0
26641;DHT22;14269;47.358;0.724;2023-09-18T10:17:14;23.0;67.0
26641;DHT22;14269;47.358;0.724;2023-09-18T10:19:57;23.0;67.0
26641;DHT22;14269;47.358;0.724;2023-09-18T10:22:38;23.0;68.0
26641;DHT22;14269;47.358;0.724;2023-09-18T10:25:19;23.0;67.0
26641;DHT22;14269;47.358;0.724;2023-09-18T10:28:01;23.0;65.0
26641;DHT22;14269;47.358;0.724;2023-09-18T10:30:39;23.0;67.0
26641;DHT22;14269;47.358;0.724;2023-09-18T10:33:21;24.0;66.0
26641;DHT22;14269;47.358;0.724;2023-09-18T10:35:53;24.0;65.0
26641;DHT22;14269;47.358;0.724;2023-09-18T10:38:25;24.0;64.0
26641;DHT22;14269;47.358;0.724;2023-09-18T10:41:09;24.0;64.0
26641;DHT22;14269;47.358;0.724;2023-09-18T10:43:51;24.0;64.0
26641;DHT22;14269;47.358;0.724;2023-09-18T10:46:29;24.0;65.0
26641;DHT22;14269;47.358;0.724;2023-09-18T10:49:03;24.0;65.0
26641;DHT22;14269;47.358;0.724;2023-09-18T10:51:43;24.0;64.0
26641;DHT22;14269;47.358;0.724;2023-09-18T10:54:16;24.0;65.0
26641;DHT22;14269;47.358;0.724;2023-09-18T10:56:57;24.0;63.0
26641;DHT22;14269;47.358;0.724;2023-09-18T10:59:44;24.0;64.0
26641;DHT22;14269;47.358;0.724;2023-09-18T11:02:21;25.0;62.0
26641;DHT22;14269;47.358;0.724;2023-09-18T11:05:05;25.0;61.0
26641;DHT22;14269;47.358;0.724;2023-09-18T11:07:43;25.0;63.0
26641;DHT22;14269;47.358;0.724;2023-09-18T11:10:30;25.0;63.0
26641;DHT22;14269;47.358;0.724;2023-09-18T11:13:07;25.0;61.0
26641;DHT22;14269;47.358;0.724;2023-09-18T11:15:38;25.0;61.0
26641;DHT22;14269;47.358;0.724;2023-09-18T11:18:10;25.0;60.0
26641;DHT22;14269;47.358;0.724;2023-09-18T11:20:42;26.0;61.0
26641;DHT22;14269;47.358;0.724;2023-09-18T11:23:17;26.0;58.0
26641;DHT22;14269;47.358;0.724;2023-09-18T11:25:55;26.0;60.0
26641;DHT22;14269;47.358;0.724;2023-09-18T11:28:29;26.0;58.0
26641;DHT22;14269;47.358;0.724;2023-09-18T11:31:09;26.0;57.0
26641;DHT22;14269;47.358;0.724;2023-09-18T11:33:52;26.0;57.0
26641;DHT22;14269;47.358;0.724;2023-09-18T11:36:32;26.0;57.0
26641;DHT22;14269;47.358;0.724;2023-09-18T11:39:04;25.0;59.0
26641;DHT22;14269;47.358;0.724;2023-09-18T11:41:36;24.0;60.0
26641;DHT22;14269;47.358;0.724;2023-09-18T11:44:35;25.0;59.0
26641;DHT22;14269;47.358;0.724;2023-09-18T11:47:23;26.0;56.0
26641;DHT22;14269;47.358;0.724;2023-09-18T11:50:01;27.0;56.0
26641;DHT22;14269;47.358;0.724;2023-09-18T11:52:35;27.0;54.0
26641;DHT22;14269;47.358;0.724;2023-09-18T11:55:14;26.0;52.0
26641;DHT22;14269;47.358;0.724;2023-09-18T11:57:47;26.0;51.0
26641;DHT22;14269;47.358;0.724;2023-09-18T12:00:30;25.0;53.0
26641;DHT22;14269;47.358;0.724;2023-09-18T12:03:25;25.0;55.0
26641;DHT22;14269;47.358;0.724;2023-09-18T12:06:05;24.0;56.0
26641;DHT22;14269;47.358;0.724;2023-09-18T12:08:43;24.0;57.0
26641;DHT22;14269;47.358;0.724;2023-09-18T12:11:17;24.0;59.0
26641;DHT22;14269;47.358;0.724;2023-09-18T12:13:58;23.0;60.0
26641;DHT22;14269;47.358;0.724;2023-09-18T12:16:38;23.0;58.0
26641;DHT22;14269;47.358;0.724;2023-09-18T12:19:16;25.0;57.0
26641;DHT22;14269;47.358;0.724;2023-09-18T12:21:51;25.0;55.0
26641;DHT22;14269;47.358;0.724;2023-09-18T12:24:24;25.0;56.0
26641;DHT22;14269;47.358;0.724;2023-09-18T12:27:05;25.0;57.0
26641;DHT22;14269;47.358;0.724;2023-09-18T12:29:36;25.0;57.0
26641;DHT22;14269;47.358;0.724;2023-09-18T12:32:09;25.0;58.0
26641;DHT22;14269;47.358;0.724;2023-09-18T12:34:50;24.0;59.0
26641;DHT22;14269;47.358;0.724;2023-09-18T12:37:22;24.0;59.0
26641;DHT22;14269;47.358;0.724;2023-09-18T12:40:20;24.0;59.0
26641;DHT22;14269;47.358;0.724;2023-09-18T12:42:56;24.0;60.0
26641;DHT22;14269;47.358;0.724;2023-09-18T12:45:37;24.0;62.0
26641;DHT22;14269;47.358;0.724;2023-09-18T12:48:09;23.0;61.0
26641;DHT22;14269;47.358;0.724;2023-09-18T12:50:52;23.0;63.0
26641;DHT22;14269;47.358;0.724;2023-09-18T12:53:32;22.0;65.0
26641;DHT22;14269;47.358;0.724;2023-09-18T12:56:15;23.0;66.0
26641;DHT22;14269;47.358;0.724;2023-09-18T12:58:57;23.0;66.0
26641;DHT22;14269;47.358;0.724;2023-09-18T13:01:38;23.0;65.0
26641;DHT22;14269;47.358;0.724;2023-09-18T13:04:12;23.0;66.0
26641;DHT22;14269;47.358;0.724;2023-09-18T13:07:03;23.0;66.0
26641;DHT22;14269;47.358;0.724;2023-09-18T13:09:43;23.0;66.0
26641;DHT22;14269;47.358;0.724;2023-09-18T13:12:14;23.0;66.0
26641;DHT22;14269;47.358;0.724;2023-09-18T13:15:05;24.0;66.0
26641;DHT22;14269;47.358;0.724;2023-09-18T13:17:50;25.0;65.0
26641;DHT22;14269;47.358;0.724;2023-09-18T13:20:31;25.0;65.0
26641;DHT22;14269;47.358;0.724;2023-09-18T13:23:11;24.0;64.0
26641;DHT22;14269;47.358;0.724;2023-09-18T13:25:45;24.0;64.0
26641;DHT22;14269;47.358;0.724;2023-09-18T13:28:25;24.0;64.0
26641;DHT22;14269;47.358;0.724;2023-09-18T13:30:57;24.0;64.0
26641;DHT22;14269;47.358;0.724;2023-09-18T13:33:39;24.0;64.0
26641;DHT22;14269;47.358;0.724;2023-09-18T13:36:20;24.0;63.0
26641;DHT22;14269;47.358;0.724;2023-09-18T13:38:51;24.0;62.0
26641;DHT22;14269;47.358;0.724;2023-09-18T13:41:23;24.0;58.0
26641;DHT22;14269;47.358;0.724;2023-09-18T13:43:55;24.0;56.0
26641;DHT22;14269;47.358;0.724;2023-09-18T13:46:27;24.0;57.0
26641;DHT22;14269;47.358;0.724;2023-09-18T13:48:59;24.0;57.0
26641;DHT22;14269;47.358;0.724;2023-09-18T13:51:40;24.0;58.0
26641;DHT22;14269;47.358;0.724;2023-09-18T13:54:11;25.0;55.0
26641;DHT22;14269;47.358;0.724;2023-09-18T13:56:43;26.0;54.0
26641;DHT22;14269;47.358;0.724;2023-09-18T13:59:15;26.0;54.0
26641;DHT22;14269;47.358;0.724;2023-09-18T14:01:47;26.0;53.0
26641;DHT22;14269;47.358;0.724;2023-09-18T14:04:21;26.0;52.0
26641;DHT22;14269;47.358;0.724;2023-09-18T14:07:00;26.0;53.0
26641;DHT22;14269;47.358;0.724;2023-09-18T14:09:31;26.0;53.0
26641;DHT22;14269;47.358;0.724;2023-09-18T14:12:04;26.0;52.0
26641;DHT22;14269;47.358;0.724;2023-09-18T14:14:46;26.0;53.0
26641;DHT22;14269;47.358;0.724;2023-09-18T14:17:27;25.0;54.0
26641;DHT22;14269;47.358;0.724;2023-09-18T14:19:59;25.0;55.0
26641;DHT22;14269;47.358;0.724;2023-09-18T14:22:30;24.0;56.0
26641;DHT22;14269;47.358;0.724;2023-09-18T14:25:05;24.0;56.0
26641;DHT22;14269;47.358;0.724;2023-09-18T14:27:43;24.0;56.0
26641;DHT22;14269;47.358;0.724;2023-09-18T14:30:15;24.0;57.0
26641;DHT22;14269;47.358;0.724;2023-09-18T14:32:47;24.0;58.0
26641;DHT22;14269;47.358;0.724;2023-09-18T14:35:18;24.0;57.0
26641;DHT22;14269;47.358;0.724;2023-09-18T14:37:50;24.0;58.0
26641;DHT22;14269;47.358;0.724;2023-09-18T14:40:22;24.0;59.0
26641;DHT22;14269;47.358;0.724;2023-09-18T14:42:54;24.0;58.0
26641;DHT22;14269;47.358;0.724;2023-09-18T14:45:25;24.0;58.0
26641;DHT22;14269;47.358;0.724;2023-09-18T14:47:57;24.0;57.0
26641;DHT22;14269;47.358;0.724;2023-09-18T14:50:38;24.0;57.0
26641;DHT22;14269;47.358;0.724;2023-09-18T14:53:10;25.0;55.0
26641;DHT22;14269;47.358;0.724;2023-09-18T14:55:42;25.0;55.0
26641;DHT22;14269;47.358;0.724;2023-09-18T14:58:14;25.0;55.0
26641;DHT22;14269;47.358;0.724;2023-09-18T15:00:45;25.0;55.0
26641;DHT22;14269;47.358;0.724;2023-09-18T15:03:16;25.0;54.0
26641;DHT22;14269;47.358;0.724;2023-09-18T15:05:51;25.0;55.0
26641;DHT22;14269;47.358;0.724;2023-09-18T15:08:30;24.0;57.0
26641;DHT22;14269;47.358;0.724;2023-09-18T15:11:02;24.0;56.0
26641;DHT22;14269;47.358;0.724;2023-09-18T15:13:45;24.0;58.0
26641;DHT22;14269;47.358;0.724;2023-09-18T15:16:26;24.0;58.0
26641;DHT22;14269;47.358;0.724;2023-09-18T15:19:00;24.0;59.0
26641;DHT22;14269;47.358;0.724;2023-09-18T15:21:40;23.0;64.0
26641;DHT22;14269;47.358;0.724;2023-09-18T15:24:20;23.0;68.0
26641;DHT22;14269;47.358;0.724;2023-09-18T15:26:52;22.0;70.0
26641;DHT22;14269;47.358;0.724;2023-09-18T15:29:24;23.0;67.0
26641;DHT22;14269;47.358;0.724;2023-09-18T15:31:57;23.0;66.0
26641;DHT22;14269;47.358;0.724;2023-09-18T15:34:37;24.0;65.0
26641;DHT22;14269;47.358;0.724;2023-09-18T15:37:09;24.0;64.0
26641;DHT22;14269;47.358;0.724;2023-09-18T15:39:42;24.0;65.0
26641;DHT22;14269;47.358;0.724;2023-09-18T15:42:22;24.0;65.0
26641;DHT22;14269;47.358;0.724;2023-09-18T15:44:54;24.0;64.0
26641;DHT22;14269;47.358;0.724;2023-09-18T15:47:25;24.0;63.0
26641;DHT22;14269;47.358;0.724;2023-09-18T15:49:57;24.0;64.0
26641;DHT22;14269;47.358;0.724;2023-09-18T15:52:29;24.0;64.0
26641;DHT22;14269;47.358;0.724;2023-09-18T15:55:02;24.0;64.0
26641;DHT22;14269;47.358;0.724;2023-09-18T15:57:43;24.0;64.0
26641;DHT22;14269;47.358;0.724;2023-09-18T16:00:24;23.0;64.0
26641;DHT22;14269;47.358;0.724;2023-09-18T16:02:56;23.0;65.0
26641;DHT22;14269;47.358;0.724;2023-09-18T16:05:27;23.0;65.0
26641;DHT22;14269;47.358;0.724;2023-09-18T16:07:59;23.0;64.0
26641;DHT22;14269;47.358;0.724;2023-09-18T16:10:30;23.0;65.0
26641;DHT22;14269;47.358;0.724;2023-09-18T16:13:12;23.0;65.0
26641;DHT22;14269;47.358;0.724;2023-09-18T16:15:45;23.0;65.0
26641;DHT22;14269;47.358;0.724;2023-09-18T16:18:25;23.0;64.0
26641;DHT22;14269;47.358;0.724;2023-09-18T16:20:57;23.0;64.0
26641;DHT22;14269;47.358;0.724;2023-09-18T16:23:29;23.0;64.0
26641;DHT22;14269;47.358;0.724;2023-09-18T16:26:00;23.0;64.0
26641;DHT22;14269;47.358;0.724;2023-09-18T16:28:32;23.0;64.0
26641;DHT22;14269;47.358;0.724;2023-09-18T16:31:07;23.0;64.0
26641;DHT22;14269;47.358;0.724;2023-09-18T16:33:45;23.0;62.0
26641;DHT22;14269;47.358;0.724;2023-09-18T16:36:17;23.0;63.0
26641;DHT22;14269;47.358;0.724;2023-09-18T16:38:49;23.0;62.0
26641;DHT22;14269;47.358;0.724;2023-09-18T16:41:20;23.0;63.0
26641;DHT22;14269;47.358;0.724;2023-09-18T16:43:52;23.0;62.0
26641;DHT22;14269;47.358;0.724;2023-09-18T16:46:24;23.0;62.0
26641;DHT22;14269;47.358;0.724;2023-09-18T16:48:55;23.0;63.0
26641;DHT22;14269;47.358;0.724;2023-09-18T16:51:27;23.0;64.0
26641;DHT22;14269;47.358;0.724;2023-09-18T16:53:59;23.0;63.0